Time;durP1;ratioP1;P1;durP2;ratioP2;P2;SDS_P1;SDS_P2;PMS_P1;PMS_P2;Temp;Humidity;BMP_temperature;BMP_pressure;BME280_temperature;BME280_humidity;BME280_pressure;Samples;Min_cycle;Max_cycle;Signal;HPM_P1;HPM_P2
2021/05/04 00:01:25;;;;;;;2.50;2.30;;;;;;;7.34;59.82;96433.75;5029517;28;20230;-69
2021/05/04 00:03:50;;;;;;;2.37;2.17;;;;;;;7.35;60.06;96439.78;5031357;28;20539;-69
2021/05/04 00:06:16;;;;;;;2.90;2.50;;;;;;;7.34;60.39;96431.16;5030240;28;20179;-69
2021/05/04 00:08:41;;;;;;;2.73;2.53;;;;;;;7.39;59.94;96430.50;5030633;28;20261;-69
2021/05/04 00:11:06;;;;;;;2.60;2.40;;;;;;;7.24;60.74;96432.66;5030859;28;20647;-69
2021/05/04 00:13:32;;;;;;;3.37;2.60;;;;;;;7.29;60.81;96427.59;5030433;28;21084;-70
2021/05/04 00:15:57;;;;;;;2.77;1.93;;;;;;;7.28;60.91;96426.00;5030983;28;20215;-70
2021/05/04 00:18:23;;;;;;;2.40;2.20;;;;;;;7.28;61.18;96421.56;5029789;28;20229;-69
2021/05/04 00:20:48;;;;;;;2.60;2.40;;;;;;;7.30;60.87;96419.53;5031068;28;20190;-70
2021/05/04 00:23:13;;;;;;;2.83;2.63;;;;;;;7.31;60.86;96417.72;5029990;28;20182;-68
2021/05/04 00:25:39;;;;;;;2.40;2.20;;;;;;;7.36;60.57;96418.69;5030777;28;20237;-69
2021/05/04 00:28:05;;;;;;;2.50;2.30;;;;;;;7.21;61.51;96417.44;5030814;28;20537;-68
2021/05/04 00:30:30;;;;;;;2.70;2.50;;;;;;;7.23;61.26;96416.22;5029754;28;20182;-70
2021/05/04 00:32:55;;;;;;;2.27;2.10;;;;;;;7.24;61.24;96409.19;5030698;28;20195;-69
2021/05/04 00:35:21;;;;;;;2.67;2.37;;;;;;;7.36;60.44;96397.03;5030081;28;20182;-70
2021/05/04 00:37:46;;;;;;;3.67;2.73;;;;;;;7.30;60.85;96398.69;5013224;28;20233;-70
2021/05/04 00:40:12;;;;;;;2.40;2.20;;;;;;;7.17;61.56;96398.81;5030125;28;20182;-68
2021/05/04 00:42:38;;;;;;;4.23;2.20;;;;;;;7.18;61.41;96382.19;5029966;28;20194;-70
2021/05/04 00:45:05;;;;;;;2.50;2.30;;;;;;;7.16;60.93;96373.78;5030000;28;20679;-70
2021/05/04 00:47:30;;;;;;;2.50;2.30;;;;;;;7.23;60.85;96377.13;5018023;28;20183;-71
2021/05/04 00:49:55;;;;;;;2.30;2.10;;;;;;;7.10;61.27;96377.22;5030647;28;20174;-70
2021/05/04 00:52:21;;;;;;;2.60;2.37;;;;;;;7.14;61.41;96383.59;5029460;28;20183;-69
2021/05/04 00:54:47;;;;;;;2.67;2.47;;;;;;;7.19;61.11;96375.94;5030363;28;20670;-69
2021/05/04 00:57:13;;;;;;;2.40;2.20;;;;;;;7.14;61.28;96370.56;5030052;28;20198;-68
2021/05/04 00:59:40;;;;;;;2.73;2.37;;;;;;;6.97;62.37;96370.31;5031747;28;20226;-71
2021/05/04 01:02:06;;;;;;;2.60;2.37;;;;;;;6.91;62.21;96371.16;5033869;28;20186;-71
2021/05/04 01:04:32;;;;;;;2.60;2.40;;;;;;;6.93;62.50;96366.56;5033075;28;20697;-69
2021/05/04 01:06:57;;;;;;;2.57;2.37;;;;;;;7.09;61.63;96360.78;5034652;28;20702;-70
2021/05/04 01:09:23;;;;;;;4.63;2.87;;;;;;;7.14;60.86;96362.75;5033373;28;20191;-69
2021/05/04 01:11:48;;;;;;;2.17;2.03;;;;;;;7.03;61.11;96356.44;5034312;28;20186;-69
2021/05/04 01:14:15;;;;;;;2.50;2.30;;;;;;;7.01;61.56;96353.28;5033503;28;20186;-68
2021/05/04 01:16:50;;;;;;;2.60;2.13;;;;;;;6.99;61.53;96350.06;5034191;28;20190;-70
2021/05/04 01:19:16;;;;;;;2.10;2.00;;;;;;;7.08;61.36;96347.97;5033272;28;20178;-68
2021/05/04 01:21:42;;;;;;;2.47;2.07;;;;;;;7.08;61.18;96347.97;5032056;28;20278;-70
2021/05/04 01:24:08;;;;;;;3.10;2.10;;;;;;;7.14;60.67;96344.50;5033811;28;20238;-70
2021/05/04 01:26:34;;;;;;;2.60;2.40;;;;;;;7.06;60.71;96340.41;5032838;28;20816;-70
2021/05/04 01:28:59;;;;;;;2.47;2.27;;;;;;;7.11;60.99;96337.13;5033695;28;20217;-70
2021/05/04 01:31:24;;;;;;;2.10;1.90;;;;;;;7.17;60.81;96327.66;5032677;28;20248;-70
2021/05/04 01:33:50;;;;;;;2.40;2.20;;;;;;;7.07;61.12;96331.56;5034028;28;20182;-71
2021/05/04 01:36:16;;;;;;;2.77;2.20;;;;;;;7.00;61.35;96325.63;5033485;28;20626;-68
2021/05/04 01:38:41;;;;;;;2.10;2.00;;;;;;;6.89;61.86;96328.94;5034100;28;20627;-70
2021/05/04 01:41:07;;;;;;;2.50;2.30;;;;;;;7.12;61.03;96319.69;5033907;28;20216;-70
2021/05/04 01:43:32;;;;;;;2.50;2.30;;;;;;;7.19;60.64;96307.41;5032615;28;20214;-70
2021/05/04 01:45:57;;;;;;;2.60;2.30;;;;;;;7.16;60.87;96305.22;5033917;28;20217;-70
2021/05/04 01:48:23;;;;;;;2.20;2.10;;;;;;;7.13;60.77;96306.47;5032774;28;20213;-69
2021/05/04 01:50:48;;;;;;;2.37;2.17;;;;;;;7.24;60.33;96303.13;5032843;28;20250;-69
2021/05/04 01:53:14;;;;;;;2.70;2.47;;;;;;;7.17;60.59;96305.00;5032530;28;20537;-68
2021/05/04 01:55:39;;;;;;;2.10;1.90;;;;;;;7.22;60.62;96299.94;5032409;28;20191;-69
2021/05/04 01:58:05;;;;;;;4.80;2.20;;;;;;;7.23;60.31;96300.75;5033547;28;20560;-70
2021/05/04 02:00:30;;;;;;;3.87;2.50;;;;;;;7.17;60.61;96296.38;5032751;28;20612;-69
2021/05/04 02:02:55;;;;;;;2.30;2.10;;;;;;;7.12;60.83;96291.03;5032832;28;20583;-70
2021/05/04 02:05:21;;;;;;;2.10;1.97;;;;;;;7.10;61.05;96286.81;5032267;28;20206;-69
2021/05/04 02:07:46;;;;;;;2.17;2.07;;;;;;;7.05;61.01;96286.69;5015773;28;20182;-69
2021/05/04 02:10:12;;;;;;;2.97;2.40;;;;;;;7.03;61.33;96286.09;5032761;28;20236;-70
2021/05/04 02:12:41;;;;;;;2.60;2.40;;;;;;;7.09;60.80;96274.00;5031673;28;20269;-70
2021/05/04 02:15:07;;;;;;;2.40;2.20;;;;;;;6.85;62.04;96277.47;5033133;28;20187;-70
2021/05/04 02:17:33;;;;;;;2.63;2.20;;;;;;;6.83;61.71;96271.69;5032161;28;20194;-70
2021/05/04 02:19:58;;;;;;;2.53;2.33;;;;;;;6.88;62.09;96274.44;5033118;28;20270;-70
2021/05/04 02:22:24;;;;;;;2.50;2.30;;;;;;;6.91;61.93;96264.38;5032412;28;20214;-70
2021/05/04 02:24:49;;;;;;;2.60;2.40;;;;;;;6.95;61.88;96257.72;5032175;28;20207;-70
2021/05/04 02:27:14;;;;;;;2.40;2.20;;;;;;;6.83;62.17;96251.66;5032331;28;20187;-68
2021/05/04 02:29:40;;;;;;;2.53;2.33;;;;;;;6.98;62.07;96253.88;5032328;28;20195;-70
2021/05/04 02:32:05;;;;;;;2.30;2.20;;;;;;;6.97;61.79;96253.09;5032567;28;20650;-69
2021/05/04 02:34:32;;;;;;;2.20;2.00;;;;;;;6.86;62.13;96253.81;5031748;28;20237;-69
2021/05/04 02:36:57;;;;;;;4.10;2.07;;;;;;;6.82;62.61;96252.66;5032714;28;20195;-68
2021/05/04 02:39:22;;;;;;;2.53;2.30;;;;;;;6.94;62.28;96250.94;5031500;28;20666;-69
2021/05/04 02:41:48;;;;;;;2.40;2.13;;;;;;;7.02;62.17;96242.03;5032235;28;20643;-69
2021/05/04 02:44:13;;;;;;;3.43;2.23;;;;;;;6.95;62.30;96239.50;5014752;28;20194;-68
2021/05/04 02:46:38;;;;;;;2.37;2.00;;;;;;;7.00;62.19;96237.03;5031670;28;20210;-69
2021/05/04 02:49:04;;;;;;;2.23;2.13;;;;;;;7.06;61.94;96223.16;5032322;28;20215;-68
2021/05/04 02:51:29;;;;;;;2.63;2.43;;;;;;;7.09;61.67;96217.47;5030890;28;20255;-68
2021/05/04 02:53:55;;;;;;;1.93;1.83;;;;;;;7.09;61.65;96217.47;5032625;28;20620;-68
2021/05/04 02:56:21;;;;;;;3.07;2.30;;;;;;;7.03;62.07;96220.94;5013208;28;20551;-68
2021/05/04 02:58:46;;;;;;;2.60;2.40;;;;;;;6.92;62.63;96218.28;5032397;28;20186;-68
2021/05/04 03:01:11;;;;;;;2.70;2.50;;;;;;;6.87;62.92;96211.13;5031897;28;20305;-68
2021/05/04 03:03:37;;;;;;;2.60;2.40;;;;;;;6.98;62.46;96207.00;5031686;28;20187;-68
2021/05/04 03:06:03;;;;;;;2.13;2.00;;;;;;;6.91;62.69;96207.06;5032035;28;20218;-68
2021/05/04 03:08:29;;;;;;;2.50;2.30;;;;;;;6.88;63.02;96202.31;5031011;28;20212;-68
2021/05/04 03:10:55;;;;;;;2.17;1.97;;;;;;;7.00;62.42;96197.97;5031846;28;20195;-69
2021/05/04 03:13:28;;;;;;;2.30;2.10;;;;;;;7.07;62.40;96192.69;5031289;28;20543;-68
2021/05/04 03:15:54;;;;;;;2.83;2.33;;;;;;;7.02;62.50;96188.09;5031696;28;20179;-68
2021/05/04 03:18:19;;;;;;;2.37;2.17;;;;;;;6.98;62.44;96184.34;5031219;28;20186;-67
2021/05/04 03:20:46;;;;;;;2.50;1.80;;;;;;;7.02;62.52;96188.09;5031721;28;20730;-68
2021/05/04 03:23:11;;;;;;;2.03;1.93;;;;;;;7.07;62.85;96182.25;5031878;28;20182;-68
2021/05/04 03:25:37;;;;;;;2.33;2.17;;;;;;;7.04;62.56;96180.06;5030770;28;20205;-69
2021/05/04 03:28:03;;;;;;;2.63;2.13;;;;;;;7.06;62.58;96171.03;5031539;28;20186;-69
2021/05/04 03:30:29;;;;;;;2.67;2.13;;;;;;;7.02;62.49;96162.03;5030487;28;20186;-69
2021/05/04 03:32:55;;;;;;;2.00;1.90;;;;;;;7.13;62.62;96160.53;5031458;28;20582;-69
2021/05/04 03:35:20;;;;;;;1.97;1.87;;;;;;;7.05;62.59;96153.81;5030858;28;20232;-69
2021/05/04 03:37:47;;;;;;;2.07;1.87;;;;;;;7.14;61.90;96149.06;5031923;28;20182;-69
2021/05/04 03:40:13;;;;;;;2.10;2.00;;;;;;;7.16;61.69;96144.44;5031506;28;20252;-70
2021/05/04 03:42:39;;;;;;;2.10;2.00;;;;;;;7.14;61.70;96143.06;5030544;28;20269;-69
2021/05/04 03:45:07;;;;;;;2.27;2.13;;;;;;;7.17;61.40;96150.44;5031047;28;20289;-70
2021/05/04 03:47:32;;;;;;;9.30;2.10;;;;;;;7.23;61.46;96142.56;5030667;28;20330;-70
2021/05/04 03:49:58;;;;;;;2.23;2.03;;;;;;;7.14;61.76;96146.47;5020911;28;20277;-70
2021/05/04 03:52:23;;;;;;;2.13;1.97;;;;;;;7.22;61.32;96135.75;5030665;28;20588;-69
2021/05/04 03:54:49;;;;;;;2.00;1.90;;;;;;;7.25;61.12;96145.72;5030734;28;20190;-69
2021/05/04 03:57:15;;;;;;;2.43;2.23;;;;;;;7.30;60.85;96143.22;5031045;28;20182;-68
2021/05/04 03:59:40;;;;;;;2.07;1.90;;;;;;;7.34;60.55;96143.59;5030852;28;20305;-69
2021/05/04 04:02:06;;;;;;;1.90;1.80;;;;;;;7.32;60.54;96136.00;5030839;28;20209;-70
2021/05/04 04:04:31;;;;;;;1.97;1.87;;;;;;;7.33;60.53;96135.00;5030020;28;20336;-69
2021/05/04 04:06:56;;;;;;;2.10;1.90;;;;;;;7.31;60.94;96123.19;5031015;28;20183;-70
2021/05/04 04:09:22;;;;;;;4.47;1.80;;;;;;;7.34;60.53;96117.53;5012515;28;20217;-69
2021/05/04 04:11:47;;;;;;;1.67;1.57;;;;;;;7.37;60.74;96112.66;5030744;28;20183;-70
2021/05/04 04:14:13;;;;;;;2.30;1.87;;;;;;;7.38;61.07;96110.84;5030961;28;20281;-69
2021/05/04 04:16:38;;;;;;;1.60;1.50;;;;;;;7.45;60.67;96106.34;5030176;28;20187;-70
2021/05/04 04:19:03;;;;;;;4.30;2.03;;;;;;;7.45;60.55;96096.72;5030725;28;20646;-69
2021/05/04 04:21:29;;;;;;;2.37;2.17;;;;;;;7.48;60.56;96098.88;5012336;28;20206;-70
2021/05/04 04:23:54;;;;;;;3.10;1.73;;;;;;;7.48;60.64;96098.06;5030951;28;20213;-69
2021/05/04 04:26:19;;;;;;;1.97;1.87;;;;;;;7.44;60.71;96094.31;5030341;28;20189;-69
2021/05/04 04:28:45;;;;;;;2.00;1.90;;;;;;;7.49;60.60;96089.22;5030759;28;20631;-70
2021/05/04 04:31:10;;;;;;;1.97;1.60;;;;;;;7.53;60.08;96092.97;5013369;28;20182;-70
2021/05/04 04:33:35;;;;;;;1.73;1.63;;;;;;;7.54;60.19;96086.75;5030147;28;20186;-70
2021/05/04 04:36:01;;;;;;;1.70;1.60;;;;;;;7.60;59.92;96082.44;5035086;28;20218;-70
2021/05/04 04:38:26;;;;;;;2.10;1.83;;;;;;;7.63;59.86;96080.19;5033745;28;20190;-70
2021/05/04 04:40:52;;;;;;;1.73;1.63;;;;;;;7.65;59.96;96079.94;5034915;28;20186;-69
2021/05/04 04:43:17;;;;;;;2.37;1.80;;;;;;;7.66;59.61;96077.13;5034388;28;20635;-68
2021/05/04 04:45:42;;;;;;;1.60;1.50;;;;;;;7.65;59.94;96078.16;5034451;28;20662;-70
2021/05/04 04:48:08;;;;;;;1.60;1.53;;;;;;;7.69;59.87;96070.69;5034516;28;20199;-71
2021/05/04 04:50:33;;;;;;;1.80;1.70;;;;;;;7.71;60.06;96066.81;5033401;28;20225;-70
2021/05/04 04:52:59;;;;;;;1.47;1.37;;;;;;;7.69;60.03;96066.22;5017199;28;20182;-70
2021/05/04 04:55:24;;;;;;;1.70;1.60;;;;;;;7.81;59.92;96063.63;5034887;28;20631;-70
2021/05/04 04:57:50;;;;;;;1.60;1.50;;;;;;;7.85;59.57;96062.19;5035085;28;20191;-70
2021/05/04 05:00:15;;;;;;;2.10;1.80;;;;;;;7.84;59.43;96066.59;5034220;28;20538;-68
2021/05/04 05:02:41;;;;;;;1.90;1.80;;;;;;;7.87;59.80;96062.72;5033823;28;20654;-69
2021/05/04 05:05:07;;;;;;;3.00;1.80;;;;;;;7.90;60.11;96067.50;5034385;28;20218;-70
2021/05/04 05:07:32;;;;;;;2.33;2.10;;;;;;;8.00;59.75;96066.94;5033966;28;20235;-69
2021/05/04 05:09:58;;;;;;;1.70;1.60;;;;;;;8.00;60.17;96070.34;5034159;28;20273;-68
2021/05/04 05:12:25;;;;;;;2.10;1.60;;;;;;;8.03;59.79;96066.47;5033558;28;20540;-69
2021/05/04 05:14:53;;;;;;;4.03;2.70;;;;;;;7.98;60.19;96066.34;5001653;28;20210;-70
2021/05/04 05:17:19;;;;;;;1.60;1.50;;;;;;;8.09;59.91;96063.75;5033740;28;20187;-69
2021/05/04 05:19:44;;;;;;;1.80;1.70;;;;;;;8.13;60.32;96067.50;5034026;28;20254;-70
2021/05/04 05:22:09;;;;;;;2.33;2.13;;;;;;;8.11;60.27;96071.34;5016526;28;20221;-70
2021/05/04 05:24:37;;;;;;;1.80;1.70;;;;;;;8.13;59.95;96061.50;5033029;28;20202;-71
2021/05/04 05:27:03;;;;;;;2.40;1.93;;;;;;;8.49;70.22;96061.22;5034421;28;20193;-70
2021/05/04 05:29:34;;;;;;;4.13;2.20;;;;;;;9.52;66.47;96047.94;5032998;28;20222;-70
2021/05/04 05:31:59;;;;;;;1.53;1.43;;;;;;;9.32;57.93;96047.59;5033952;28;20643;-70
2021/05/04 05:34:25;;;;;;;1.60;1.50;;;;;;;9.09;57.92;96051.13;5033303;28;20195;-70
2021/05/04 05:36:50;;;;;;;1.90;1.80;;;;;;;8.87;58.57;96044.16;5016318;28;20225;-69
2021/05/04 05:39:16;;;;;;;1.73;1.63;;;;;;;8.84;58.47;96045.44;5033153;28;20194;-68
2021/05/04 05:41:42;;;;;;;2.73;1.80;;;;;;;8.75;58.55;96038.97;5033163;28;20182;-70
2021/05/04 05:44:08;;;;;;;1.77;1.67;;;;;;;8.84;57.92;96039.41;5016326;28;20289;-69
2021/05/04 05:46:33;;;;;;;1.87;1.77;;;;;;;8.90;57.41;96039.28;5031351;28;20294;-69
2021/05/04 05:48:59;;;;;;;1.70;1.60;;;;;;;8.93;57.67;96028.34;5033322;28;20207;-70
2021/05/04 05:51:25;;;;;;;1.97;1.87;;;;;;;9.02;57.47;96034.81;5015419;28;20195;-69
2021/05/04 05:53:50;;;;;;;1.83;1.73;;;;;;;9.02;56.77;96029.56;5033853;28;20175;-68
2021/05/04 05:56:16;;;;;;;2.43;1.80;;;;;;;9.02;57.17;96021.72;5015663;28;20540;-68
2021/05/04 05:58:41;;;;;;;1.63;1.53;;;;;;;9.19;56.46;96024.38;5033398;28;20233;-70
2021/05/04 06:01:07;;;;;;;1.90;1.80;;;;;;;9.27;56.07;96021.34;5032824;28;20570;-70
2021/05/04 06:03:32;;;;;;;2.33;1.97;;;;;;;9.39;55.87;96021.28;5015085;28;20189;-70
2021/05/04 06:05:58;;;;;;;1.60;1.50;;;;;;;9.50;55.13;96017.78;5033332;28;20698;-71
2021/05/04 06:08:24;;;;;;;1.90;1.80;;;;;;;9.54;55.20;96009.22;5014778;28;20579;-71
2021/05/04 06:10:50;;;;;;;2.00;1.80;;;;;;;9.62;54.79;96015.88;5033226;28;20190;-69
2021/05/04 06:13:15;;;;;;;1.70;1.60;;;;;;;9.68;54.95;96014.94;5020498;28;20191;-69
2021/05/04 06:15:40;;;;;;;1.73;1.63;;;;;;;9.77;54.23;96012.69;5032401;28;20187;-70
2021/05/04 06:18:07;;;;;;;2.10;1.90;;;;;;;9.86;53.86;96013.88;5033319;28;20705;-70
2021/05/04 06:20:32;;;;;;;1.40;1.40;;;;;;;9.96;53.89;96006.97;5032324;28;20286;-70
2021/05/04 06:22:58;;;;;;;1.90;1.60;;;;;;;10.14;53.50;96003.25;5032545;28;20686;-70
2021/05/04 06:25:23;;;;;;;1.50;1.40;;;;;;;10.20;53.51;96002.31;5032193;28;20565;-69
2021/05/04 06:27:49;;;;;;;1.50;1.40;;;;;;;10.31;53.32;95996.16;5032580;28;20179;-69
2021/05/04 06:30:16;;;;;;;1.80;1.70;;;;;;;10.40;52.98;95992.09;5032690;28;20554;-68
2021/05/04 06:32:42;;;;;;;1.80;1.70;;;;;;;10.43;52.73;96003.91;5032459;28;20218;-67
2021/05/04 06:35:09;;;;;;;2.87;1.67;;;;;;;10.52;52.73;95999.84;5018228;28;20511;-68
2021/05/04 06:37:34;;;;;;;1.60;1.50;;;;;;;10.67;52.06;96004.44;5032326;28;20191;-66
2021/05/04 06:40:00;;;;;;;1.80;1.70;;;;;;;10.69;52.09;95997.13;5032636;28;20190;-67
2021/05/04 06:42:27;;;;;;;2.07;1.67;;;;;;;10.79;51.74;95990.16;5031551;28;20321;-68
2021/05/04 06:44:52;;;;;;;1.70;1.60;;;;;;;10.86;51.42;95992.59;5032610;28;20682;-66
2021/05/04 06:47:17;;;;;;;1.83;1.73;;;;;;;10.95;51.20;95990.31;5031746;28;20179;-65
2021/05/04 06:49:44;;;;;;;1.50;1.40;;;;;;;11.02;50.97;95994.31;5032252;28;20201;-68
2021/05/04 06:52:10;;;;;;;1.50;1.40;;;;;;;10.99;51.43;95991.38;5032389;28;20182;-63
2021/05/04 06:54:35;;;;;;;2.03;1.30;;;;;;;11.17;50.67;95985.78;5031375;28;20766;-63
2021/05/04 06:57:01;;;;;;;1.53;1.43;;;;;;;11.24;50.38;95981.13;5031505;28;20674;-63
2021/05/04 06:59:26;;;;;;;1.47;1.37;;;;;;;11.32;50.14;95985.09;5030852;28;20226;-63
2021/05/04 07:01:52;;;;;;;1.90;1.43;;;;;;;11.38;50.15;95976.22;5032067;28;20182;-63
2021/05/04 07:04:17;;;;;;;1.87;1.50;;;;;;;11.61;49.27;95976.69;5031904;28;20206;-63
2021/05/04 07:06:43;;;;;;;1.53;1.37;;;;;;;11.60;49.10;95971.66;5014388;28;20206;-64
2021/05/04 07:09:09;;;;;;;1.50;1.40;;;;;;;11.57;49.09;95967.72;5032650;28;20194;-64
2021/05/04 07:11:35;;;;;;;1.37;1.37;;;;;;;11.71;48.28;95962.03;5030973;28;20183;-64
2021/05/04 07:14:02;;;;;;;1.37;1.27;;;;;;;11.79;48.36;95965.00;5032391;28;20190;-64
2021/05/04 07:16:28;;;;;;;1.40;1.30;;;;;;;11.91;48.12;95947.22;5031099;28;20185;-64
2021/05/04 07:18:53;;;;;;;1.20;1.20;;;;;;;12.16;47.59;95957.03;5014723;28;20225;-64
2021/05/04 07:21:19;;;;;;;1.40;1.30;;;;;;;12.26;47.39;95953.69;5031381;28;20179;-64
2021/05/04 07:23:44;;;;;;;1.30;1.30;;;;;;;12.42;47.02;95950.84;5031542;28;20198;-64
2021/05/04 07:26:13;;;;;;;1.20;1.20;;;;;;;12.45;46.95;95946.91;5031744;28;20662;-64
2021/05/04 07:28:38;;;;;;;1.03;1.03;;;;;;;12.53;46.59;95948.25;5030767;28;20897;-66
2021/05/04 07:31:04;;;;;;;1.40;1.30;;;;;;;12.81;46.53;95959.09;5032304;28;20190;-64
2021/05/04 07:33:29;;;;;;;1.23;1.20;;;;;;;12.94;45.96;95949.88;5029645;28;20197;-64
2021/05/04 07:35:58;;;;;;;1.50;1.40;;;;;;;13.25;45.43;95950.75;5030894;28;20182;-65
2021/05/04 07:38:23;;;;;;;1.47;1.23;;;;;;;13.28;45.09;95944.94;5031256;28;20190;-65
2021/05/04 07:40:49;;;;;;;1.20;1.20;;;;;;;13.33;44.95;95952.81;5031339;28;20320;-66
2021/05/04 07:43:14;;;;;;;1.73;1.40;;;;;;;13.53;44.23;95950.19;5032143;28;20194;-65
2021/05/04 07:45:39;;;;;;;1.07;1.07;;;;;;;13.78;44.06;95954.63;5030619;28;20218;-65
2021/05/04 07:48:08;;;;;;;1.97;1.20;;;;;;;13.98;43.38;95944.03;5031324;28;20193;-65
2021/05/04 07:50:34;;;;;;;1.20;1.10;;;;;;;14.30;42.68;95940.22;5030751;28;20202;-66
2021/05/04 07:52:59;;;;;;;1.03;1.03;;;;;;;14.57;41.84;95940.66;5031270;28;20205;-65
2021/05/04 07:55:25;;;;;;;1.40;1.23;;;;;;;14.69;41.54;95948.25;5013026;28;20201;-65
2021/05/04 07:57:51;;;;;;;2.73;1.20;;;;;;;14.64;41.82;95948.28;5031327;28;20258;-65
2021/05/04 08:00:16;;;;;;;2.33;1.40;;;;;;;14.71;41.86;95927.66;5013526;28;20223;-65
2021/05/04 08:02:42;;;;;;;1.40;1.30;;;;;;;14.77;41.17;95932.59;5030301;28;20191;-66
2021/05/04 08:05:09;;;;;;;1.30;1.20;;;;;;;15.04;40.69;95931.41;5031462;28;20275;-65
2021/05/04 08:07:34;;;;;;;1.20;1.20;;;;;;;14.97;40.36;95923.78;5030533;28;20185;-66
2021/05/04 08:10:00;;;;;;;1.27;1.27;;;;;;;15.06;40.03;95914.22;5030913;28;20187;-66
2021/05/04 08:12:25;;;;;;;1.30;1.30;;;;;;;15.13;39.65;95914.69;5030370;28;20205;-65
2021/05/04 08:14:52;;;;;;;1.90;1.17;;;;;;;15.03;40.58;95935.09;5013798;28;20195;-67
2021/05/04 08:17:19;;;;;;;1.30;1.13;;;;;;;15.06;41.74;95934.53;5030948;28;20187;-65
2021/05/04 08:19:45;;;;;;;1.37;1.37;;;;;;;15.03;39.93;95922.69;5030867;28;20375;-66
2021/05/04 08:22:11;;;;;;;1.40;1.40;;;;;;;15.03;39.99;95921.91;5030899;28;20265;-65
2021/05/04 08:24:37;;;;;;;1.30;1.20;;;;;;;15.07;39.47;95920.28;5030040;28;20210;-65
2021/05/04 08:27:04;;;;;;;1.43;1.33;;;;;;;15.13;39.54;95922.59;5031253;28;20178;-65
2021/05/04 08:29:30;;;;;;;1.43;1.33;;;;;;;15.13;39.29;95919.97;5030174;28;20521;-65
2021/05/04 08:31:55;;;;;;;1.50;1.10;;;;;;;15.36;38.51;95900.75;5031086;28;20189;-65
2021/05/04 08:34:21;;;;;;;2.83;1.20;;;;;;;15.45;39.27;95921.28;5029595;28;20198;-65
2021/05/04 08:36:48;;;;;;;1.27;1.17;;;;;;;15.68;38.87;95926.63;5030757;28;20233;-65
2021/05/04 08:39:14;;;;;;;1.10;1.10;;;;;;;15.99;38.45;95918.41;5031304;28;20187;-65
2021/05/04 08:41:42;;;;;;;1.17;1.17;;;;;;;16.32;37.37;95916.69;5029419;28;20186;-65
2021/05/04 08:44:08;;;;;;;2.70;1.10;;;;;;;16.51;36.87;95912.97;5017598;28;20191;-65
2021/05/04 08:46:36;;;;;;;1.40;1.30;;;;;;;16.49;36.85;95915.13;5029964;28;20190;-65
2021/05/04 08:49:04;;;;;;;1.40;1.30;;;;;;;16.32;36.93;95901.59;5030772;28;20189;-65
2021/05/04 08:51:30;;;;;;;1.60;1.40;;;;;;;16.51;36.82;95912.19;5030022;28;20213;-65
2021/05/04 08:53:56;;;;;;;1.20;1.20;;;;;;;16.77;36.82;95905.50;5030178;28;20186;-66
2021/05/04 08:56:21;;;;;;;1.93;1.83;;;;;;;16.79;36.35;95902.56;5030027;28;20192;-65
2021/05/04 08:58:47;;;;;;;1.30;1.20;;;;;;;16.76;36.56;95901.28;5029203;28;20182;-65
2021/05/04 09:01:12;;;;;;;1.30;1.20;;;;;;;16.84;36.56;95891.88;5030304;28;20231;-66
2021/05/04 09:03:43;;;;;;;1.50;1.40;;;;;;;16.90;36.51;95886.25;5030005;28;20270;-65
2021/05/04 09:06:15;;;;;;;1.60;1.30;;;;;;;16.95;36.55;95906.53;5030738;28;20191;-65
2021/05/04 09:08:53;;;;;;;2.25;1.33;;;;;;;17.00;36.24;95885.28;5029663;28;20179;-67
2021/05/04 09:21:42;;;;;;;2.17;1.40;;;;;;;16.63;36.25;95905.44;5032895;28;21007;-66
2021/05/04 09:24:23;;;;;;;1.20;1.20;;;;;;;16.46;36.67;95913.03;5034452;28;20187;-65
2021/05/04 09:26:56;;;;;;;2.27;1.80;;;;;;;16.54;36.05;95891.25;5032642;28;20179;-66
2021/05/04 09:29:28;;;;;;;1.87;1.40;;;;;;;16.53;35.72;95891.53;5033649;28;20201;-65
2021/05/04 09:31:54;;;;;;;1.30;1.20;;;;;;;16.59;36.11;95893.06;5034663;28;20207;-66
2021/05/04 09:34:20;;;;;;;1.33;1.23;;;;;;;16.62;36.43;95881.88;5033617;28;20221;-65
2021/05/04 09:36:51;;;;;;;1.10;1.10;;;;;;;16.98;35.80;95876.88;5033973;28;20183;-66
2021/05/04 09:39:28;;;;;;;1.40;1.30;;;;;;;16.92;35.84;95885.97;5034409;28;20701;-66
2021/05/04 09:41:55;;;;;;;1.43;1.30;;;;;;;16.91;36.04;95871.94;5034022;28;20209;-66
2021/05/04 09:44:40;;;;;;;1.38;1.27;;;;;;;17.16;35.99;95881.34;5033203;28;20226;-65
2021/05/04 09:47:07;;;;;;;1.40;1.30;;;;;;;16.97;35.94;95872.63;5019885;28;20183;-67
2021/05/04 09:49:34;;;;;;;2.88;1.58;;;;;;;16.86;35.65;95885.25;5032991;28;20191;-66
2021/05/04 09:52:41;;;;;;;1.40;1.30;;;;;;;16.79;35.75;95900.69;5016228;28;20191;-66
2021/05/04 09:55:16;;;;;;;1.40;1.30;;;;;;;16.80;35.74;95873.16;5033547;28;20623;-66
2021/05/04 09:57:47;;;;;;;1.23;1.23;;;;;;;17.12;35.72;95890.91;5032462;28;20182;-68
2021/05/04 10:00:16;;;;;;;1.55;1.45;;;;;;;17.07;35.00;95887.56;5033901;28;20249;-66
2021/05/04 10:02:43;;;;;;;1.77;1.45;;;;;;;16.79;35.44;95879.53;5032122;28;20191;-66
2021/05/04 10:05:14;;;;;;;2.57;1.23;;;;;;;16.81;35.74;95873.94;5032974;28;20206;-67
2021/05/04 10:07:40;;;;;;;1.50;1.40;;;;;;;16.80;35.71;95862.56;5032077;28;20334;-66
2021/05/04 10:10:08;;;;;;;1.97;1.53;;;;;;;16.75;36.13;95890.97;5033186;28;20677;-67
2021/05/04 10:12:36;;;;;;;1.57;1.37;;;;;;;16.86;36.08;95871.22;5031416;28;20198;-66
2021/05/04 10:15:08;;;;;;;1.23;1.13;;;;;;;17.09;35.94;95872.97;5033551;28;20186;-67
2021/05/04 10:17:34;;;;;;;1.83;1.10;;;;;;;17.17;35.62;95885.53;5032217;28;20236;-67
2021/05/04 10:20:06;;;;;;;1.10;1.10;;;;;;;17.24;35.81;95874.56;5025010;28;20277;-67
2021/05/04 10:22:34;;;;;;;1.83;1.48;;;;;;;17.39;35.90;95867.16;5033099;28;20560;-67
2021/05/04 10:25:00;;;;;;;1.27;1.23;;;;;;;17.59;34.56;95900.47;5032833;28;20217;-67
2021/05/04 10:27:26;;;;;;;1.33;1.30;;;;;;;17.62;34.44;95867.31;5031875;28;20190;-66
2021/05/04 10:29:52;;;;;;;1.10;1.10;;;;;;;17.58;34.08;95876.91;5030018;28;20213;-67
2021/05/04 10:32:47;;;;;;;1.48;1.38;;;;;;;17.63;34.57;95872.31;5012773;28;20197;-67
2021/05/04 10:35:31;;;;;;;1.80;1.58;;;;;;;17.58;34.62;95858.34;5028327;28;20186;-67
2021/05/04 10:38:01;;;;;;;2.13;1.40;;;;;;;17.46;34.87;95867.56;5020110;28;20611;-67
2021/05/04 10:40:31;;;;;;;1.20;1.20;;;;;;;17.66;35.40;95868.31;5032230;28;20179;-66
2021/05/04 10:42:58;;;;;;;1.35;1.23;;;;;;;17.82;34.36;95872.25;5032288;28;20266;-66
2021/05/04 10:45:42;;;;;;;4.28;1.70;;;;;;;17.59;34.61;95879.25;5031000;28;20210;-66
2021/05/04 10:48:08;;;;;;;1.10;1.10;;;;;;;17.31;34.91;95844.00;5030605;28;20182;-68
2021/05/04 10:50:56;;;;;;;1.50;1.40;;;;;;;17.36;35.09;95870.38;5031365;28;20201;-67
2021/05/04 10:53:27;;;;;;;1.50;1.40;;;;;;;17.59;35.19;95862.56;5031902;28;20197;-66
2021/05/04 10:55:53;;;;;;;1.67;1.58;;;;;;;17.64;35.28;95870.47;5030980;28;20213;-67
2021/05/04 10:58:31;;;;;;;1.45;1.42;;;;;;;17.65;35.05;95862.22;5032459;28;20258;-67
2021/05/04 11:01:01;;;;;;;1.25;1.17;;;;;;;17.40;35.49;95866.06;5027120;28;20234;-66
2021/05/04 11:03:29;;;;;;;1.40;1.30;;;;;;;17.58;34.95;95861.00;5031104;28;20186;-66
2021/05/04 11:05:59;;;;;;;1.40;1.30;;;;;;;17.61;34.65;95855.91;5031671;28;20230;-67
2021/05/04 11:08:45;;;;;;;1.23;1.17;;;;;;;17.56;34.79;95863.94;5031507;28;20183;-65
2021/05/04 11:11:35;;;;;;;2.45;1.40;;;;;;;17.73;34.78;95858.09;5029277;28;20198;-65
2021/05/04 11:14:07;;;;;;;3.45;1.50;;;;;;;17.65;34.81;95870.19;5029091;28;20542;-66
2021/05/04 11:16:41;;;;;;;1.50;1.40;;;;;;;17.58;35.38;95856.50;5030800;28;20201;-66
2021/05/04 11:19:09;;;;;;;1.50;1.40;;;;;;;17.41;35.40;95862.34;5031984;28;20225;-66
2021/05/04 11:21:57;;;;;;;1.75;1.35;;;;;;;17.26;35.57;95862.63;5021158;28;20599;-66
2021/05/04 11:24:36;;;;;;;1.95;1.40;;;;;;;17.47;35.66;95860.41;5031428;28;20198;-65
2021/05/04 11:27:16;;;;;;;1.48;1.20;;;;;;;17.80;35.36;95859.28;5017378;28;20229;-66
2021/05/04 11:29:42;;;;;;;6.65;1.67;;;;;;;18.04;34.84;95852.97;5030908;28;20193;-66
2021/05/04 11:32:11;;;;;;;5.07;1.50;;;;;;;17.88;34.33;95846.41;5031782;28;20194;-66
2021/05/04 11:34:45;;;;;;;1.20;1.20;;;;;;;17.70;35.03;95850.72;5030560;28;20236;-66
2021/05/04 11:37:20;;;;;;;1.25;1.25;;;;;;;17.46;35.43;95853.53;5031584;28;20189;-66
2021/05/04 11:39:55;;;;;;;1.60;1.50;;;;;;;17.22;36.15;95858.97;5030758;28;20194;-66
2021/05/04 11:42:31;;;;;;;2.20;1.40;;;;;;;17.07;35.47;95829.31;5030720;28;20658;-66
2021/05/04 11:45:06;;;;;;;1.30;1.20;;;;;;;17.19;34.88;95848.19;5026303;28;20201;-66
2021/05/04 11:47:31;;;;;;;1.40;1.30;;;;;;;17.17;35.02;95845.81;5029701;28;20178;-66
2021/05/04 11:50:07;;;;;;;2.17;1.25;;;;;;;17.03;35.62;95866.19;5031557;28;20688;-66